Главная страница
METAR-TAF:

METAR-TAF

Аэропорты :

Самсун, Турция

широта: 41-15-15N, долгота: 036-34-03E, высота над уровнем моря: 5 м

Текущие метеонаблюдения

Эта сводка был подготовлена 54 минут назад, в 18:50 UTC
Ветер 8 Узел от восточно-юго-восточный, изменяющийся между восточный и юго-юго-восточный
Температура 18°C
Влажность 49%
Давление 1010 hPa
Видимость 10 км и более
Отдельные облака на высоте 3600 фута
Рассеянная облачность на высоте 10000 фута

METAR: LTFH 191850Z 12008KT 090V160 9999 SCT036 BKN100 18/07 Q1010 NOSIG

Время: 22:44 (19:44 UTC)

Прогноз

Эта сводка был подготовлена 3 часа и 4 минут назад, в 16:40 UTC
Прогноз действительный с 19-го 18 UTC до 20-го 03 UTC
Ветер 9 Узел от южный-юго-западный
Видимость 10 км и более
Отдельные облака на высоте 3300 фута
Рассеянная облачность на высоте 10000 фута

TAF: LTFH 191640Z 1918/2003 21009KT 9999 SCT033 BKN100

Метеонаблюдения и прогнозы для более 4000 аэропортов (сводки METAR и TAF).

Имеющиеся станции представлены на карте желтыми и красными точками.

Чтобы увидеть название станции, наведите на нее мышь.

Затем щелкните, чтобы увидеть метеонаблюдения и метеопрогнозы.

Управление картой: чтобы увеличить масштаб, щелкните зеленые кнопки с черным крестиком; чтобы уменьшить масштаб, щелкните зеленую кнопку с тире; для просмотра соседних карт щелкайте зеленые стрелки.


METAR-TAF: